Kezdőlap
METAR-TAF:

METAR-TAF

Repülőterek :

Metropolis Municipal Airport

Metropolis, Illinois, Amerikai Egyesült Államok

földrajzi szélesség: 37-11-09N, földrajzi hosszúság: 088-45-02W, magasság: 117 m

Jelenlegi meteorológiai megfigyelések

A jelentés 38 perccel ezelõtt készült, 09:15 UTC
Szélcsend
Hőmérséklet 21°C
Páratartalom 100%
Légköri nyomás 1017 hPa
Látótávolság: 16.1 km
Szórványos felhőzet 4900 lábon
Szórványos felhőzet 6000 lábon
Szakadozott felhőzet 8000 lábon

METAR: KM30 210915Z AUTO 00000KT 10SM SCT049 SCT060 BKN080 21/21 A3004 RMK AO2 T02120206

Idő: 04:53 (09:53 UTC)


TAF: hiányzik

Meteorológiai megfigyelések és előrejelzések több, mint 4000 repülőtéren (METAR és TAF jelentéseket).

A térképen piros és sárga pontok jelzik az elérhető meteorológiai állomásokat.

Mozgassa az egeret a pont fölött, hogy megjelenjen az állomás neve.

Azután kattintson az időjárási megfigyelések és előrejelzések megtekintéséhez.

A térkép megváltoztatása: kattintson a fekete keresztel jelölt zöld gombra ráközelítéshez, a vonallal jelölt zöld gombra távolításhoz, vagy a zöld nyilakra a szomszédos térképek eléréséhez.


METAR-TAF: